.
WxDataArchive / Data Records for 2011-06-11
2011-06-10 June 2011 2011-06-12

Data Records for Saturday, 11 June 2011

Time	Temp	Chill	HIndex	Humid	Dewpt	 Wind 	HiWind	WindDir	Rain 	Barom 
-----	----	-----	------	-----	-----	------	------	-------	-----	----- 
00:00	65.0	65.0	65.0	92	62.6	1	5	90	0.00	29.933 
00:05	65.2	65.2	65.2	93	63.1	1	3	90	0.00	29.933 
00:10	65.2	65.2	65.2	93	63.1	1	4	90	0.00	29.933 
00:15	65.2	65.2	65.2	93	63.1	1	4	68	0.00	29.916 
00:20	65.2	65.2	65.2	93	63.1	1	3	112	0.00	29.916 
00:25	65.2	65.2	65.2	93	63.1	0	2	112	0.00	29.916 
00:30	65.2	65.2	65.2	94	63.4	0	2	112	0.00	29.912 
00:35	65.2	65.2	65.2	94	63.4	1	3	112	0.00	29.912 
00:40	65.2	65.2	65.2	94	63.4	0	1	112	0.00	29.912 
00:45	65.2	65.2	65.2	94	63.4	0	2	112	0.00	29.912 
00:50	65.2	65.2	65.2	94	63.4	1	3	112	0.00	29.912 
00:55	65.2	65.2	65.2	94	63.4	0	2	112	0.00	29.912 
01:00	65.0	65.0	65.0	94	63.2	2	4	112	0.00	29.900 
01:05	65.0	65.0	65.0	94	63.2	1	3	112	0.00	29.900 
01:10	65.0	65.0	65.0	94	63.2	1	4	112	0.00	29.900 
01:15	65.0	65.0	65.0	94	63.2	0	3	112	0.00	29.882 
01:20	65.0	65.0	65.0	94	63.2	1	3	112	0.00	29.882 
01:25	65.0	65.0	65.0	95	63.5	1	4	112	0.00	29.882 
01:30	64.8	64.8	64.8	95	63.3	0	4	112	0.00	29.882 
01:35	64.8	64.8	64.8	95	63.3	1	4	112	0.00	29.882 
01:40	64.8	64.8	64.8	95	63.3	0	4	112	0.00	29.882 
01:45	64.7	64.7	64.7	95	63.2	1	3	112	0.00	29.880 
01:50	64.7	64.7	64.7	95	63.2	1	3	112	0.00	29.880 
01:55	64.7	64.7	64.7	95	63.2	2	6	90	0.00	29.880 
02:00	64.7	64.7	64.7	95	63.2	1	4	112	0.00	29.872 
02:05	64.7	64.7	64.7	95	63.2	1	3	112	0.00	29.872 
02:10	64.5	64.5	64.5	95	63.0	1	5	90	0.00	29.872 
02:15	64.5	64.5	64.5	95	63.0	1	7	90	0.00	29.842 
02:20	64.5	64.5	64.5	95	63.0	2	7	90	0.00	29.842 
02:25	64.5	64.5	64.5	95	63.0	2	5	90	0.00	29.842 
02:30	64.5	64.5	64.5	95	63.0	2	4	90	0.00	29.844 
02:35	64.5	64.5	64.5	95	63.0	2	3	90	0.00	29.844 
02:40	64.5	64.5	64.5	95	63.0	1	3	90	0.00	29.844 
02:45	64.5	64.5	64.5	95	63.0	0	2	90	0.00	29.858 
02:50	64.5	64.5	64.5	96	63.3	0	1	90	0.00	29.858 
02:55	64.7	64.7	64.7	95	63.2	0	2	90	0.00	29.858 
03:00	64.7	64.7	64.7	95	63.2	0	1	90	0.00	29.872 
03:05	64.7	64.7	64.7	95	63.2	0	1	90	0.00	29.872 
03:10	64.7	64.7	64.7	95	63.2	0	2	90	0.00	29.872 
03:15	64.7	64.7	64.7	95	63.2	0	1	90	0.00	29.869 
03:20	64.8	64.8	64.8	95	63.3	0	0	---	0.00	29.869 
03:25	64.8	64.8	64.8	95	63.3	0	0	---	0.00	29.869 
03:30	64.8	64.8	64.8	95	63.3	0	0	---	0.00	29.880 
03:35	64.8	64.8	64.8	95	63.3	0	1	90	0.00	29.880 
03:40	65.0	65.0	65.0	95	63.5	0	2	90	0.00	29.880 
03:45	65.0	65.0	65.0	95	63.5	0	2	90	0.00	29.885 
03:50	65.0	65.0	65.0	95	63.5	1	3	90	0.00	29.885 
03:55	65.0	65.0	65.0	95	63.5	0	2	90	0.00	29.885 
04:00	65.0	65.0	65.0	95	63.5	0	1	90	0.00	29.871 
04:05	65.2	65.2	65.2	95	63.7	0	0	---	0.00	29.871 
04:10	65.2	65.2	65.2	95	63.7	0	0	---	0.00	29.871 
04:15	65.2	65.2	65.2	95	63.7	0	1	90	0.00	29.852 
04:20	65.2	65.2	65.2	95	63.7	0	2	90	0.00	29.852 
04:25	65.2	65.2	65.2	95	63.7	0	0	---	0.00	29.852 
04:30	65.2	65.2	65.2	95	63.7	0	0	---	0.00	29.839 
04:35	65.2	65.2	65.2	95	63.7	0	0	---	0.00	29.839 
04:40	65.2	65.2	65.2	95	63.7	0	0	---	0.00	29.839 
04:45	65.2	65.2	65.2	95	63.7	0	1	90	0.00	29.838 
04:50	65.2	65.2	65.2	95	63.7	0	0	---	0.00	29.838 
04:55	65.2	65.2	65.2	95	63.7	0	0	---	0.00	29.838 
05:00	65.2	65.2	65.2	95	63.7	0	0	---	0.00	29.826 
05:05	65.0	65.0	65.0	95	63.5	0	0	---	0.00	29.826 
05:10	65.0	65.0	65.0	95	63.5	0	0	---	0.00	29.826 
05:15	65.0	65.0	65.0	95	63.5	0	0	---	0.00	29.829 
05:20	65.0	65.0	65.0	95	63.5	0	0	---	0.00	29.829 
05:25	65.0	65.0	65.0	95	63.5	0	0	---	0.00	29.829 
05:30	64.8	64.8	64.8	95	63.3	0	0	---	0.00	29.817 
05:35	64.8	64.8	64.8	95	63.3	0	1	90	0.00	29.817 
05:40	64.7	64.7	64.7	95	63.2	0	0	---	0.00	29.817 
05:45	64.7	64.7	64.7	95	63.2	0	0	---	0.00	29.822 
05:50	64.7	64.7	64.7	95	63.2	0	0	---	0.00	29.822 
05:55	64.7	64.7	64.7	95	63.2	0	0	---	0.00	29.822 
06:00	64.5	64.5	64.5	95	63.0	0	0	---	0.00	29.831 
06:05	64.5	64.5	64.5	95	63.0	0	0	---	0.00	29.831 
06:10	64.5	64.5	64.5	95	63.0	0	1	90	0.00	29.831 
06:15	64.5	64.5	64.5	95	63.0	0	0	---	0.00	29.847 
06:20	64.5	64.5	64.5	95	63.0	0	0	---	0.00	29.847 
06:25	64.5	64.5	64.5	95	63.0	0	0	---	0.00	29.847 
06:30	64.5	64.5	64.5	95	63.0	0	0	---	0.00	29.861 
06:35	64.5	64.5	64.5	96	63.3	0	1	90	0.00	29.861 
06:40	64.5	64.5	64.5	96	63.3	0	0	---	0.00	29.861 
06:45	64.5	64.5	64.5	96	63.3	0	0	---	0.00	29.870 
06:50	64.5	64.5	64.5	96	63.3	0	0	---	0.00	29.870 
06:55	64.7	64.7	64.7	96	63.5	0	0	---	0.00	29.870 
07:00	64.7	64.7	64.7	96	63.5	0	0	---	0.00	29.881 
07:05	64.7	64.7	64.7	96	63.5	0	0	---	0.00	29.881 
07:10	64.7	64.7	64.7	96	63.5	0	0	---	0.00	29.881 
07:15	64.7	64.7	64.7	96	63.5	0	0	---	0.00	29.882 
07:20	64.8	64.8	64.8	96	63.6	0	0	---	0.00	29.882 
07:25	64.8	64.8	64.8	96	63.6	0	0	---	0.00	29.882 
07:30	65.0	65.0	65.0	96	63.8	0	0	---	0.00	29.887 
07:35	65.0	65.0	65.0	96	63.8	0	1	90	0.00	29.887 
07:40	65.2	65.2	65.2	96	64.0	0	0	---	0.00	29.887 
07:45	65.2	65.2	65.2	96	64.0	0	0	---	0.00	29.886 
07:50	65.3	65.3	65.3	96	64.1	0	0	---	0.00	29.886 
07:55	65.5	65.5	65.5	96	64.3	0	0	---	0.00	29.886 
08:00	65.6	65.6	65.6	96	64.4	0	0	---	0.00	29.886 
08:05	65.8	65.8	65.8	96	64.6	0	0	---	0.00	29.886 
08:10	66.1	66.1	66.1	96	64.9	0	0	---	0.00	29.886 
08:15	66.6	66.6	66.6	96	65.4	0	1	90	0.00	29.896 
08:20	67.1	67.1	67.1	96	65.9	0	3	90	0.00	29.896 
08:25	67.4	67.4	67.4	96	66.2	0	2	90	0.00	29.896 
08:30	67.9	67.9	67.9	95	66.4	0	2	90	0.00	29.894 
08:35	68.3	68.3	68.3	95	66.8	0	1	90	0.00	29.894 
08:40	68.6	68.6	68.6	94	66.8	0	1	90	0.00	29.894 
08:45	68.8	68.8	68.8	93	66.7	0	2	90	0.00	29.889 
08:50	69.1	69.1	69.1	92	66.7	0	1	90	0.00	29.889 
08:55	68.9	68.9	68.9	91	66.2	0	1	90	0.00	29.889 
09:00	69.1	69.1	69.1	90	66.0	0	2	90	0.00	29.891 
09:05	68.9	68.9	68.9	89	65.5	0	1	90	0.00	29.891 
09:10	69.1	69.1	69.1	89	65.7	0	1	90	0.00	29.891 
09:15	69.3	69.3	69.3	88	65.6	0	1	90	0.00	29.895 
09:20	69.4	69.4	69.4	88	65.7	0	1	90	0.00	29.895 
09:25	69.3	69.3	69.3	87	65.3	0	1	90	0.00	29.895 
09:30	69.3	69.3	69.3	87	65.3	0	1	90	0.00	29.892 
09:35	69.3	69.3	69.3	87	65.3	0	1	90	0.00	29.892 
09:40	69.3	69.3	69.3	88	65.6	0	1	90	0.00	29.892 
09:45	68.9	68.9	68.9	87	64.9	0	2	90	0.00	29.896 
09:50	68.9	68.9	68.9	87	64.9	0	1	90	0.00	29.896 
09:55	68.9	68.9	68.9	87	64.9	0	1	90	0.00	29.896 
10:00	69.3	69.3	69.3	87	65.3	0	1	90	0.00	29.894 
10:05	69.4	69.4	69.4	86	65.0	0	2	90	0.00	29.894 
10:10	69.8	69.8	69.8	86	65.4	0	2	90	0.00	29.894 
10:15	70.6	70.6	70.6	86	66.2	1	3	90	0.00	29.891 
10:20	71.3	71.3	71.3	82	65.5	2	4	248	0.00	29.891 
10:25	72.0	72.0	72.0	79	65.1	2	4	248	0.00	29.891 
10:30	72.1	72.1	72.1	76	64.1	3	5	292	0.00	29.880 
10:35	72.3	72.3	72.3	76	64.3	2	4	270	0.00	29.880 
10:40	73.0	73.0	73.0	77	65.3	1	4	270	0.00	29.880 
10:45	73.9	73.9	73.9	76	65.8	1	3	270	0.00	29.875 
10:50	74.2	74.2	74.2	74	65.4	2	5	270	0.00	29.875 
10:55	74.7	74.7	74.7	73	65.5	2	4	270	0.00	29.875 
11:00	75.1	75.1	76.8	70	64.6	2	4	270	0.00	29.872 
11:05	75.1	75.1	76.8	70	64.6	2	3	270	0.00	29.872 
11:10	75.3	75.3	77.0	70	64.8	2	4	270	0.00	29.872 
11:15	75.8	75.8	77.4	70	65.3	2	4	315	0.00	29.872 
11:20	76.1	76.1	77.8	69	65.2	2	3	338	0.00	29.872 
11:25	76.3	76.3	78.1	67	64.5	3	6	292	0.00	29.872 
11:30	76.5	76.5	78.3	68	65.1	1	4	292	0.00	29.867 
11:35	76.8	76.8	78.6	66	64.6	2	4	292	0.00	29.867 
11:40	76.8	76.8	78.6	65	64.1	2	5	315	0.00	29.867 
11:45	77.0	77.0	78.8	65	64.3	2	5	270	0.00	29.869 
11:50	77.2	77.2	79.0	67	65.4	2	4	315	0.00	29.869 
11:55	77.6	77.6	79.4	65	64.9	3	5	270	0.00	29.869 
12:00	77.6	77.6	79.4	64	64.4	2	5	270	0.00	29.864 
12:05	77.7	77.7	79.5	65	65.0	2	6	270	0.00	29.864 
12:10	77.9	77.9	79.7	63	64.3	2	5	270	0.00	29.864 
12:15	77.9	77.9	79.7	63	64.3	2	4	292	0.00	29.860 
12:20	78.3	78.3	80.2	66	66.0	1	3	292	0.00	29.860 
12:25	78.5	78.5	80.3	63	64.8	1	2	292	0.00	29.860 
12:30	79.0	79.0	81.0	64	65.8	1	2	292	0.00	29.852 
12:35	79.2	79.2	81.1	63	65.5	1	4	292	0.00	29.852 
12:40	79.4	79.4	80.9	58	63.3	2	6	292	0.00	29.852 
12:45	79.4	79.4	81.3	62	65.2	1	4	292	0.00	29.854 
12:50	79.6	79.6	81.3	60	64.5	1	4	292	0.00	29.854 
12:55	79.4	79.4	81.0	59	63.8	1	3	292	0.00	29.854 
13:00	79.2	79.2	80.7	57	62.6	2	4	292	0.00	29.852 
13:05	78.8	78.8	80.1	55	61.2	2	6	315	0.00	29.852 
13:10	79.2	79.2	80.7	57	62.6	2	4	270	0.00	29.852 
13:15	79.9	79.9	81.3	56	62.8	2	4	270	0.00	29.849 
13:20	80.3	80.3	81.5	54	62.1	3	5	270	0.00	29.849 
13:25	80.5	80.5	82.1	57	63.8	2	5	292	0.00	29.849 
13:30	80.1	80.1	81.6	57	63.5	2	5	270	0.00	29.849 
13:35	79.8	79.8	81.4	58	63.7	2	4	270	0.00	29.849 
13:40	79.6	79.6	81.2	58	63.5	1	3	315	0.00	29.849 
13:45	79.6	79.6	81.1	57	63.0	2	4	270	0.00	29.851 
13:50	79.9	79.9	81.6	59	64.3	1	3	315	0.00	29.851 
13:55	80.3	80.3	81.8	57	63.7	2	4	315	0.00	29.851 
14:00	80.3	80.3	81.7	56	63.1	2	5	315	0.00	29.852 
14:05	80.3	80.3	81.7	56	63.1	2	5	292	0.00	29.852 
14:10	80.3	80.3	81.8	57	63.7	1	2	292	0.00	29.852 
14:15	80.7	80.7	82.0	55	63.0	2	5	292	0.00	29.846 
14:20	80.9	80.9	82.4	56	63.7	0	2	270	0.00	29.846 
14:25	81.1	81.1	82.6	56	63.9	1	3	270	0.00	29.846 
14:30	81.1	81.1	82.5	55	63.4	2	4	270	0.00	29.843 
14:35	81.6	81.6	82.9	54	63.3	1	5	292	0.00	29.843 
14:40	81.8	81.8	83.3	55	64.0	2	6	270	0.00	29.843 
14:45	81.4	81.4	82.7	54	63.1	2	4	292	0.00	29.841 
14:50	81.1	81.1	82.5	55	63.4	1	2	292	0.00	29.841 
14:55	80.5	80.5	81.8	55	62.8	1	2	292	0.00	29.841 
15:00	79.8	79.8	81.3	57	63.2	1	2	292	0.00	29.844 
15:05	79.4	79.4	80.9	58	63.3	1	4	292	0.00	29.844 
15:10	79.6	79.6	81.3	59	64.0	2	4	270	0.00	29.844 
15:15	79.9	79.9	81.4	57	63.3	2	5	270	0.00	29.846 
15:20	79.8	79.8	81.4	58	63.7	1	4	292	0.00	29.846 
15:25	79.2	79.2	80.8	59	63.6	2	5	292	0.00	29.846 
15:30	78.3	78.3	79.9	59	62.8	2	4	270	0.00	29.853 
15:35	77.7	77.7	79.4	60	62.7	2	5	315	0.00	29.853 
15:40	77.6	77.6	79.3	61	63.1	2	4	292	0.00	29.853 
15:45	77.6	77.6	79.3	60	62.6	2	5	270	0.00	29.856 
15:50	77.6	77.6	79.4	62	63.5	1	4	315	0.00	29.856 
15:55	77.6	77.6	79.3	61	63.1	1	3	315	0.00	29.856 
16:00	77.9	77.9	79.6	62	63.8	1	3	315	0.00	29.854 
16:05	78.1	78.1	79.9	62	64.0	2	3	315	0.00	29.854 
16:10	78.1	78.1	79.8	61	63.5	1	3	315	0.00	29.854 
16:15	77.9	77.9	79.6	61	63.3	2	5	292	0.00	29.855 
16:20	77.9	77.9	79.7	63	64.3	2	4	315	0.00	29.855 
16:25	78.1	78.1	79.9	63	64.5	2	5	315	0.00	29.855 
16:30	78.6	78.6	80.4	62	64.5	3	5	270	0.00	29.853 
16:35	78.8	78.8	80.5	60	63.7	3	6	270	0.00	29.853 
16:40	78.8	78.8	80.5	60	63.7	3	6	270	0.00	29.853 
16:45	78.8	78.8	80.5	60	63.7	3	7	270	0.00	29.853 
16:50	78.6	78.6	80.3	61	64.0	2	4	315	0.00	29.853 
16:55	78.6	78.6	80.3	60	63.5	3	7	292	0.00	29.853 
17:00	78.6	78.6	80.3	61	64.0	3	6	270	0.00	29.852 
17:05	78.8	78.8	80.5	61	64.2	2	4	315	0.00	29.852 
17:10	78.6	78.6	80.4	62	64.5	3	5	270	0.00	29.852 
17:15	78.3	78.3	80.1	62	64.2	3	6	270	0.00	29.852 
17:20	77.7	77.7	79.5	64	64.5	1	4	315	0.00	29.852 
17:25	77.7	77.7	79.5	64	64.5	1	4	292	0.00	29.852 
17:30	77.7	77.7	79.5	64	64.5	2	5	292	0.00	29.855 
17:35	78.1	78.1	79.9	64	64.9	1	3	292	0.00	29.855 
17:40	78.1	78.1	79.9	62	64.0	2	5	270	0.00	29.855 
17:45	77.6	77.6	79.4	62	63.5	2	5	292	0.00	29.857 
17:50	77.4	77.4	79.2	62	63.3	1	4	270	0.00	29.857 
17:55	77.6	77.6	79.4	62	63.5	1	3	292	0.00	29.857 
18:00	77.6	77.6	79.4	62	63.5	2	5	292	0.00	29.856 
18:05	77.2	77.2	79.0	62	63.2	2	4	292	0.00	29.856 
18:10	77.0	77.0	78.8	62	63.0	2	4	338	0.00	29.856 
18:15	77.2	77.2	79.0	63	63.6	1	3	338	0.00	29.856 
18:20	77.2	77.2	79.0	63	63.6	2	4	292	0.00	29.856 
18:25	77.4	77.4	79.2	63	63.8	1	3	315	0.00	29.856 
18:30	77.2	77.2	79.0	64	64.1	1	3	315	0.00	29.853 
18:35	77.0	77.0	78.8	64	63.9	1	3	315	0.00	29.853 
18:40	76.7	76.7	78.5	63	63.1	2	4	315	0.00	29.853 
18:45	76.5	76.5	78.3	65	63.8	1	3	315	0.00	29.850 
18:50	76.5	76.5	78.3	64	63.4	2	4	315	0.00	29.850 
18:55	76.3	76.3	78.1	65	63.6	1	4	270	0.00	29.850 
19:00	76.5	76.5	78.3	66	64.3	1	4	292	0.00	29.854 
19:05	76.3	76.3	78.1	65	63.6	1	5	270	0.00	29.854 
19:10	76.3	76.3	78.1	66	64.1	1	3	270	0.00	29.854 
19:15	76.0	76.0	77.8	66	63.8	1	3	315	0.00	29.857 
19:20	75.8	75.8	77.7	66	63.6	2	4	270	0.00	29.857 
19:25	75.8	75.8	77.7	66	63.6	2	4	315	0.00	29.857 
19:30	75.8	75.8	77.6	67	64.0	2	4	292	0.00	29.854 
19:35	75.6	75.6	77.4	67	63.9	1	4	292	0.00	29.854 
19:40	75.3	75.3	77.1	68	64.0	1	3	315	0.00	29.854 
19:45	75.1	75.1	76.9	68	63.8	1	4	315	0.00	29.858 
19:50	75.1	75.1	76.9	69	64.2	1	3	315	0.00	29.858 
19:55	74.9	74.9	74.9	69	64.0	1	4	270	0.00	29.858 
20:00	74.7	74.7	74.7	71	64.7	2	5	270	0.00	29.856 
20:05	74.6	74.6	74.6	73	65.4	1	5	292	0.00	29.856 
20:10	74.4	74.4	74.4	73	65.2	1	4	292	0.00	29.856 
20:15	74.2	74.2	74.2	74	65.4	1	4	292	0.00	29.857 
20:20	74.2	74.2	74.2	73	65.0	1	4	292	0.00	29.857 
20:25	74.0	74.0	74.0	73	64.8	1	3	292	0.00	29.857 
20:30	73.7	73.7	73.7	73	64.5	1	4	315	0.00	29.859 
20:35	73.5	73.5	73.5	74	64.7	1	3	315	0.00	29.859 
20:40	73.5	73.5	73.5	73	64.3	2	5	270	0.00	29.859 
20:45	73.3	73.3	73.3	73	64.1	2	3	270	0.00	29.866 
20:50	73.2	73.2	73.2	73	64.0	1	3	315	0.00	29.866 
20:55	73.0	73.0	73.0	72	63.4	2	4	315	0.00	29.866 
21:00	72.8	72.8	72.8	72	63.2	2	5	292	0.00	29.870 
21:05	72.7	72.7	72.7	73	63.5	1	4	315	0.00	29.870 
21:10	72.5	72.5	72.5	75	64.1	2	4	292	0.00	29.870 
21:15	72.3	72.3	72.3	76	64.3	1	3	292	0.00	29.874 
21:20	72.1	72.1	72.1	76	64.1	2	5	270	0.00	29.874 
21:25	71.6	71.6	71.6	77	64.0	2	4	315	0.00	29.874 
21:30	70.9	70.9	70.9	77	63.3	1	4	338	0.00	29.874 
21:35	70.3	70.3	70.3	79	63.5	1	4	315	0.00	29.874 
21:40	69.6	69.6	69.6	80	63.1	1	3	292	0.00	29.874 
21:45	69.1	69.1	69.1	80	62.7	1	6	270	0.00	29.876 
21:50	68.8	68.8	68.8	81	62.7	1	3	292	0.00	29.876 
21:55	68.3	68.3	68.3	81	62.2	2	5	292	0.00	29.876 
22:00	67.8	67.8	67.8	82	62.1	2	5	270	0.00	29.885 
22:05	67.4	67.4	67.4	82	61.7	1	4	338	0.00	29.885 
22:10	67.1	67.1	67.1	83	61.8	1	3	338	0.00	29.885 
22:15	66.9	66.9	66.9	83	61.6	2	5	338	0.00	29.889 
22:20	66.6	66.6	66.6	83	61.3	1	5	292	0.00	29.889 
22:25	66.4	66.4	66.4	83	61.1	1	3	315	0.00	29.889 
22:30	66.3	66.3	66.3	84	61.3	0	2	315	0.00	29.899 
22:35	66.1	66.1	66.1	83	60.8	1	4	315	0.00	29.899 
22:40	65.8	65.8	65.8	83	60.5	1	3	315	0.00	29.899 
22:45	65.5	65.5	65.5	83	60.2	2	6	292	0.00	29.907 
22:50	65.2	65.2	65.2	82	59.6	2	4	292	0.00	29.907 
22:55	65.2	65.2	65.2	82	59.6	1	4	270	0.00	29.907 
23:00	65.0	65.0	65.0	82	59.4	0	2	292	0.00	29.908 
23:05	64.8	64.8	64.8	82	59.2	1	3	292	0.00	29.908 
23:10	64.7	64.7	64.7	82	59.1	1	4	292	0.00	29.908 
23:15	64.5	64.5	64.5	82	58.9	2	5	270	0.00	29.903 
23:20	64.2	64.2	64.2	82	58.6	1	4	292	0.00	29.903 
23:25	64.0	64.0	64.0	83	58.7	0	2	292	0.00	29.903 
23:30	63.7	63.7	63.7	83	58.4	1	3	292	0.00	29.903 
23:35	63.4	63.4	63.4	83	58.1	1	3	292	0.00	29.903 
23:40	62.9	62.9	62.9	83	57.7	1	2	292	0.00	29.903 
23:45	62.6	62.6	62.6	83	57.4	1	4	292	0.00	29.910 
23:50	62.3	62.3	62.3	84	57.4	1	2	292	0.00	29.910 
23:55	62.0	62.0	62.0	84	57.1	2	5	270	0.00	29.910 

CoCoRaHS
IN-AL-39
A2 Web Hosting
Creative Commons License
GoDaddy
search engine by freefind advanced

loaded 2018-11-12 15:17:07 • last modified 2010-11-18 10:43:29
Privacy PolicyDisclaimer
• wx.awcolley.com is powered by PmWiki v.2002016 •
• all content (unless otherwise noted) © 2018 A W Colley